sensor_id;sensor_type;location;lat;lon;timestamp;temperature;humidity
22968;DHT22;11650;48.106;-1.696;2023-08-01T00:00:01;17.30;99.90
22968;DHT22;11650;48.106;-1.696;2023-08-01T00:02:28;17.30;99.90
22968;DHT22;11650;48.106;-1.696;2023-08-01T00:04:53;17.20;99.90
22968;DHT22;11650;48.106;-1.696;2023-08-01T00:07:19;17.30;99.90
22968;DHT22;11650;48.106;-1.696;2023-08-01T00:09:45;17.20;99.90
22968;DHT22;11650;48.106;-1.696;2023-08-01T00:12:10;17.20;99.90
22968;DHT22;11650;48.106;-1.696;2023-08-01T00:14:36;17.20;99.90
22968;DHT22;11650;48.106;-1.696;2023-08-01T00:17:02;17.20;99.90
22968;DHT22;11650;48.106;-1.696;2023-08-01T00:19:28;17.30;99.90
22968;DHT22;11650;48.106;-1.696;2023-08-01T00:21:54;17.30;99.90
22968;DHT22;11650;48.106;-1.696;2023-08-01T00:24:20;17.20;99.90
22968;DHT22;11650;48.106;-1.696;2023-08-01T00:26:45;17.10;99.90
22968;DHT22;11650;48.106;-1.696;2023-08-01T00:29:11;17.10;99.90
22968;DHT22;11650;48.106;-1.696;2023-08-01T00:31:36;17.10;99.90
22968;DHT22;11650;48.106;-1.696;2023-08-01T00:34:02;17.10;99.90
22968;DHT22;11650;48.106;-1.696;2023-08-01T00:36:28;17.00;99.90
22968;DHT22;11650;48.106;-1.696;2023-08-01T00:38:53;17.00;99.90
22968;DHT22;11650;48.106;-1.696;2023-08-01T00:41:19;17.00;99.90
22968;DHT22;11650;48.106;-1.696;2023-08-01T00:43:45;16.90;99.90
22968;DHT22;11650;48.106;-1.696;2023-08-01T00:46:10;16.90;99.90
22968;DHT22;11650;48.106;-1.696;2023-08-01T00:48:36;17.00;99.90
22968;DHT22;11650;48.106;-1.696;2023-08-01T00:51:06;16.90;99.90
22968;DHT22;11650;48.106;-1.696;2023-08-01T00:53:32;16.90;99.90
22968;DHT22;11650;48.106;-1.696;2023-08-01T00:55:59;16.80;99.90
22968;DHT22;11650;48.106;-1.696;2023-08-01T00:58:25;16.90;99.90
22968;DHT22;11650;48.106;-1.696;2023-08-01T01:00:51;16.80;99.90
22968;DHT22;11650;48.106;-1.696;2023-08-01T01:03:17;16.80;99.90
22968;DHT22;11650;48.106;-1.696;2023-08-01T01:06:02;16.80;99.90
22968;DHT22;11650;48.106;-1.696;2023-08-01T01:08:29;16.80;99.90
22968;DHT22;11650;48.106;-1.696;2023-08-01T01:10:54;16.70;99.90
22968;DHT22;11650;48.106;-1.696;2023-08-01T01:13:20;16.80;99.90
22968;DHT22;11650;48.106;-1.696;2023-08-01T01:15:46;16.70;99.90
22968;DHT22;11650;48.106;-1.696;2023-08-01T01:18:11;16.70;99.90
22968;DHT22;11650;48.106;-1.696;2023-08-01T01:20:37;16.70;99.90
22968;DHT22;11650;48.106;-1.696;2023-08-01T01:23:04;16.70;99.90
22968;DHT22;11650;48.106;-1.696;2023-08-01T01:25:32;16.70;99.90
22968;DHT22;11650;48.106;-1.696;2023-08-01T01:27:59;16.70;99.90
22968;DHT22;11650;48.106;-1.696;2023-08-01T01:30:26;16.60;99.90
22968;DHT22;11650;48.106;-1.696;2023-08-01T01:32:52;16.60;99.90
22968;DHT22;11650;48.106;-1.696;2023-08-01T01:35:18;16.50;99.90
22968;DHT22;11650;48.106;-1.696;2023-08-01T01:37:44;16.50;99.90
22968;DHT22;11650;48.106;-1.696;2023-08-01T01:40:10;16.50;99.90
22968;DHT22;11650;48.106;-1.696;2023-08-01T01:42:36;16.50;99.90
22968;DHT22;11650;48.106;-1.696;2023-08-01T01:45:02;16.50;99.90
22968;DHT22;11650;48.106;-1.696;2023-08-01T01:47:27;16.50;99.90
22968;DHT22;11650;48.106;-1.696;2023-08-01T01:49:53;16.50;99.90
22968;DHT22;11650;48.106;-1.696;2023-08-01T01:52:19;16.50;99.90
22968;DHT22;11650;48.106;-1.696;2023-08-01T01:54:44;16.50;99.90
22968;DHT22;11650;48.106;-1.696;2023-08-01T01:57:10;16.40;99.90
22968;DHT22;11650;48.106;-1.696;2023-08-01T01:59:35;16.40;99.90
22968;DHT22;11650;48.106;-1.696;2023-08-01T02:02:01;16.40;99.90
22968;DHT22;11650;48.106;-1.696;2023-08-01T02:04:29;16.40;99.90
22968;DHT22;11650;48.106;-1.696;2023-08-01T02:06:55;16.40;99.90
22968;DHT22;11650;48.106;-1.696;2023-08-01T02:09:21;16.40;99.90
22968;DHT22;11650;48.106;-1.696;2023-08-01T02:11:46;16.40;99.90
22968;DHT22;11650;48.106;-1.696;2023-08-01T02:14:13;16.40;99.90
22968;DHT22;11650;48.106;-1.696;2023-08-01T02:16:39;16.40;99.90
22968;DHT22;11650;48.106;-1.696;2023-08-01T02:19:04;16.40;99.90
22968;DHT22;11650;48.106;-1.696;2023-08-01T02:21:30;16.30;99.90
22968;DHT22;11650;48.106;-1.696;2023-08-01T02:23:55;16.30;99.90
22968;DHT22;11650;48.106;-1.696;2023-08-01T02:26:21;16.30;99.90
22968;DHT22;11650;48.106;-1.696;2023-08-01T02:28:48;16.30;99.90
22968;DHT22;11650;48.106;-1.696;2023-08-01T02:31:15;16.30;99.90
22968;DHT22;11650;48.106;-1.696;2023-08-01T02:33:41;16.20;99.90
22968;DHT22;11650;48.106;-1.696;2023-08-01T02:36:06;16.20;99.90
22968;DHT22;11650;48.106;-1.696;2023-08-01T02:38:32;16.10;99.90
22968;DHT22;11650;48.106;-1.696;2023-08-01T02:40:58;16.10;99.90
22968;DHT22;11650;48.106;-1.696;2023-08-01T02:43:23;16.10;99.90
22968;DHT22;11650;48.106;-1.696;2023-08-01T02:45:49;16.00;99.90
22968;DHT22;11650;48.106;-1.696;2023-08-01T02:48:15;16.10;99.90
22968;DHT22;11650;48.106;-1.696;2023-08-01T02:50:40;16.00;99.90
22968;DHT22;11650;48.106;-1.696;2023-08-01T02:53:06;16.00;99.90
22968;DHT22;11650;48.106;-1.696;2023-08-01T02:55:32;16.00;99.90
22968;DHT22;11650;48.106;-1.696;2023-08-01T02:57:57;15.90;99.90
22968;DHT22;11650;48.106;-1.696;2023-08-01T03:00:23;15.90;99.90
22968;DHT22;11650;48.106;-1.696;2023-08-01T03:02:49;15.90;99.90
22968;DHT22;11650;48.106;-1.696;2023-08-01T03:05:14;15.80;99.90
22968;DHT22;11650;48.106;-1.696;2023-08-01T03:07:40;15.80;99.90
22968;DHT22;11650;48.106;-1.696;2023-08-01T03:10:06;15.80;99.90
22968;DHT22;11650;48.106;-1.696;2023-08-01T03:12:32;15.80;99.90
22968;DHT22;11650;48.106;-1.696;2023-08-01T03:14:58;15.80;99.90
22968;DHT22;11650;48.106;-1.696;2023-08-01T03:17:23;15.80;99.90
22968;DHT22;11650;48.106;-1.696;2023-08-01T03:19:49;15.70;99.90
22968;DHT22;11650;48.106;-1.696;2023-08-01T03:22:15;15.70;99.90
22968;DHT22;11650;48.106;-1.696;2023-08-01T03:24:41;15.70;99.90
22968;DHT22;11650;48.106;-1.696;2023-08-01T03:27:07;15.70;99.90
22968;DHT22;11650;48.106;-1.696;2023-08-01T03:29:32;15.70;99.90
22968;DHT22;11650;48.106;-1.696;2023-08-01T03:31:58;15.60;99.90
22968;DHT22;11650;48.106;-1.696;2023-08-01T03:34:24;15.60;99.90
22968;DHT22;11650;48.106;-1.696;2023-08-01T03:36:51;15.60;99.90
22968;DHT22;11650;48.106;-1.696;2023-08-01T03:39:17;15.50;99.90
22968;DHT22;11650;48.106;-1.696;2023-08-01T03:41:43;15.50;99.90
22968;DHT22;11650;48.106;-1.696;2023-08-01T03:44:08;15.40;99.90
22968;DHT22;11650;48.106;-1.696;2023-08-01T03:46:34;15.40;99.90
22968;DHT22;11650;48.106;-1.696;2023-08-01T03:49:00;15.40;99.90
22968;DHT22;11650;48.106;-1.696;2023-08-01T03:51:25;15.30;99.90
22968;DHT22;11650;48.106;-1.696;2023-08-01T03:53:51;15.30;99.90
22968;DHT22;11650;48.106;-1.696;2023-08-01T03:56:16;15.30;99.90
22968;DHT22;11650;48.106;-1.696;2023-08-01T03:58:42;15.20;99.90
22968;DHT22;11650;48.106;-1.696;2023-08-01T04:01:08;15.20;99.90
22968;DHT22;11650;48.106;-1.696;2023-08-01T04:03:33;15.20;99.90
22968;DHT22;11650;48.106;-1.696;2023-08-01T04:05:59;15.10;99.90
22968;DHT22;11650;48.106;-1.696;2023-08-01T04:08:25;15.10;99.90
22968;DHT22;11650;48.106;-1.696;2023-08-01T04:10:50;15.10;99.90
22968;DHT22;11650;48.106;-1.696;2023-08-01T04:13:16;15.10;99.90
22968;DHT22;11650;48.106;-1.696;2023-08-01T04:15:42;15.10;99.90
22968;DHT22;11650;48.106;-1.696;2023-08-01T04:18:07;15.10;99.90
22968;DHT22;11650;48.106;-1.696;2023-08-01T04:20:33;15.10;99.90
22968;DHT22;11650;48.106;-1.696;2023-08-01T04:22:59;15.10;99.90
22968;DHT22;11650;48.106;-1.696;2023-08-01T04:25:26;15.10;99.90
22968;DHT22;11650;48.106;-1.696;2023-08-01T04:27:52;15.20;99.90
22968;DHT22;11650;48.106;-1.696;2023-08-01T04:30:18;15.20;99.90
22968;DHT22;11650;48.106;-1.696;2023-08-01T04:32:44;15.20;99.90
22968;DHT22;11650;48.106;-1.696;2023-08-01T04:35:10;15.10;99.90
22968;DHT22;11650;48.106;-1.696;2023-08-01T04:37:35;15.10;99.90
22968;DHT22;11650;48.106;-1.696;2023-08-01T04:40:01;15.10;99.90
22968;DHT22;11650;48.106;-1.696;2023-08-01T04:42:28;15.10;99.90
22968;DHT22;11650;48.106;-1.696;2023-08-01T04:44:54;15.20;99.90
22968;DHT22;11650;48.106;-1.696;2023-08-01T04:47:21;15.20;99.90
22968;DHT22;11650;48.106;-1.696;2023-08-01T04:49:46;15.20;99.90
22968;DHT22;11650;48.106;-1.696;2023-08-01T04:52:12;15.20;99.90
22968;DHT22;11650;48.106;-1.696;2023-08-01T04:54:38;15.30;99.90
22968;DHT22;11650;48.106;-1.696;2023-08-01T04:57:04;15.30;99.90
22968;DHT22;11650;48.106;-1.696;2023-08-01T04:59:30;15.30;99.90
22968;DHT22;11650;48.106;-1.696;2023-08-01T05:01:55;15.30;99.90
22968;DHT22;11650;48.106;-1.696;2023-08-01T05:04:21;15.30;99.90
22968;DHT22;11650;48.106;-1.696;2023-08-01T05:06:47;15.30;99.90
22968;DHT22;11650;48.106;-1.696;2023-08-01T05:09:12;15.30;99.90
22968;DHT22;11650;48.106;-1.696;2023-08-01T05:11:38;15.30;99.90
22968;DHT22;11650;48.106;-1.696;2023-08-01T05:14:04;15.30;99.90
22968;DHT22;11650;48.106;-1.696;2023-08-01T05:16:30;15.30;99.90
22968;DHT22;11650;48.106;-1.696;2023-08-01T05:18:55;15.30;99.90
22968;DHT22;11650;48.106;-1.696;2023-08-01T05:21:21;15.20;99.90
22968;DHT22;11650;48.106;-1.696;2023-08-01T05:23:47;15.30;99.90
22968;DHT22;11650;48.106;-1.696;2023-08-01T05:26:12;15.30;99.90
22968;DHT22;11650;48.106;-1.696;2023-08-01T05:28:38;15.40;99.90
22968;DHT22;11650;48.106;-1.696;2023-08-01T05:31:04;15.40;99.90
22968;DHT22;11650;48.106;-1.696;2023-08-01T05:33:29;15.40;99.90
22968;DHT22;11650;48.106;-1.696;2023-08-01T05:35:55;15.40;99.90
22968;DHT22;11650;48.106;-1.696;2023-08-01T05:38:20;15.50;99.90
22968;DHT22;11650;48.106;-1.696;2023-08-01T05:40:46;15.50;99.90
22968;DHT22;11650;48.106;-1.696;2023-08-01T05:43:12;15.50;99.90
22968;DHT22;11650;48.106;-1.696;2023-08-01T05:45:38;15.60;99.90
22968;DHT22;11650;48.106;-1.696;2023-08-01T05:48:04;15.60;99.90
22968;DHT22;11650;48.106;-1.696;2023-08-01T05:50:29;15.70;99.90
22968;DHT22;11650;48.106;-1.696;2023-08-01T05:52:55;15.80;99.90
22968;DHT22;11650;48.106;-1.696;2023-08-01T05:55:21;15.80;99.90
22968;DHT22;11650;48.106;-1.696;2023-08-01T05:57:46;15.80;99.90
22968;DHT22;11650;48.106;-1.696;2023-08-01T06:00:15;15.90;99.90
22968;DHT22;11650;48.106;-1.696;2023-08-01T06:02:41;15.90;99.90
22968;DHT22;11650;48.106;-1.696;2023-08-01T06:05:06;16.00;99.90
22968;DHT22;11650;48.106;-1.696;2023-08-01T06:07:32;16.00;99.90
22968;DHT22;11650;48.106;-1.696;2023-08-01T06:09:58;16.00;99.90
22968;DHT22;11650;48.106;-1.696;2023-08-01T06:12:23;15.90;99.90
22968;DHT22;11650;48.106;-1.696;2023-08-01T06:14:49;16.00;99.90
22968;DHT22;11650;48.106;-1.696;2023-08-01T06:17:15;16.00;99.90
22968;DHT22;11650;48.106;-1.696;2023-08-01T06:19:41;16.00;99.90
22968;DHT22;11650;48.106;-1.696;2023-08-01T06:22:06;16.00;99.90
22968;DHT22;11650;48.106;-1.696;2023-08-01T06:24:32;16.10;99.90
22968;DHT22;11650;48.106;-1.696;2023-08-01T06:26:58;16.10;99.90
22968;DHT22;11650;48.106;-1.696;2023-08-01T06:29:23;16.10;99.90
22968;DHT22;11650;48.106;-1.696;2023-08-01T06:31:50;16.10;99.90
22968;DHT22;11650;48.106;-1.696;2023-08-01T06:34:16;16.10;99.90
22968;DHT22;11650;48.106;-1.696;2023-08-01T06:36:41;16.10;99.90
22968;DHT22;11650;48.106;-1.696;2023-08-01T06:39:07;16.10;99.90
22968;DHT22;11650;48.106;-1.696;2023-08-01T06:41:33;16.10;99.90
22968;DHT22;11650;48.106;-1.696;2023-08-01T06:43:59;16.20;99.90
22968;DHT22;11650;48.106;-1.696;2023-08-01T06:46:24;16.20;99.90
22968;DHT22;11650;48.106;-1.696;2023-08-01T06:48:50;16.20;99.90
22968;DHT22;11650;48.106;-1.696;2023-08-01T06:51:15;16.20;99.90
22968;DHT22;11650;48.106;-1.696;2023-08-01T06:53:41;16.30;99.90
22968;DHT22;11650;48.106;-1.696;2023-08-01T06:56:07;16.30;99.90
22968;DHT22;11650;48.106;-1.696;2023-08-01T06:58:33;16.40;99.90
22968;DHT22;11650;48.106;-1.696;2023-08-01T07:00:59;16.30;99.90
22968;DHT22;11650;48.106;-1.696;2023-08-01T07:03:24;16.40;99.90
22968;DHT22;11650;48.106;-1.696;2023-08-01T07:05:50;16.20;99.90
22968;DHT22;11650;48.106;-1.696;2023-08-01T07:08:15;16.20;99.90
22968;DHT22;11650;48.106;-1.696;2023-08-01T07:10:41;16.30;99.90
22968;DHT22;11650;48.106;-1.696;2023-08-01T07:13:07;16.50;99.90
22968;DHT22;11650;48.106;-1.696;2023-08-01T07:15:33;16.80;99.90
22968;DHT22;11650;48.106;-1.696;2023-08-01T07:17:59;16.80;99.90
22968;DHT22;11650;48.106;-1.696;2023-08-01T07:20:24;17.00;99.90
22968;DHT22;11650;48.106;-1.696;2023-08-01T07:22:50;17.00;99.90
22968;DHT22;11650;48.106;-1.696;2023-08-01T07:25:16;17.00;99.90
22968;DHT22;11650;48.106;-1.696;2023-08-01T07:27:42;17.00;99.90
22968;DHT22;11650;48.106;-1.696;2023-08-01T07:30:08;17.00;99.90
22968;DHT22;11650;48.106;-1.696;2023-08-01T07:32:35;17.10;99.90
22968;DHT22;11650;48.106;-1.696;2023-08-01T07:35:05;17.10;99.90
22968;DHT22;11650;48.106;-1.696;2023-08-01T07:37:33;17.10;99.90
22968;DHT22;11650;48.106;-1.696;2023-08-01T07:39:58;17.20;99.90
22968;DHT22;11650;48.106;-1.696;2023-08-01T07:42:24;17.30;99.90
22968;DHT22;11650;48.106;-1.696;2023-08-01T07:44:49;17.40;99.90
22968;DHT22;11650;48.106;-1.696;2023-08-01T07:47:15;17.50;99.90
22968;DHT22;11650;48.106;-1.696;2023-08-01T07:49:41;17.60;99.90
22968;DHT22;11650;48.106;-1.696;2023-08-01T07:52:07;17.70;99.90
22968;DHT22;11650;48.106;-1.696;2023-08-01T07:54:33;17.70;99.90
22968;DHT22;11650;48.106;-1.696;2023-08-01T07:56:58;17.70;99.90
22968;DHT22;11650;48.106;-1.696;2023-08-01T07:59:24;17.70;99.90
22968;DHT22;11650;48.106;-1.696;2023-08-01T08:01:50;17.70;99.90
22968;DHT22;11650;48.106;-1.696;2023-08-01T08:04:15;17.90;99.90
22968;DHT22;11650;48.106;-1.696;2023-08-01T08:06:41;18.10;99.90
22968;DHT22;11650;48.106;-1.696;2023-08-01T08:09:07;18.10;99.90
22968;DHT22;11650;48.106;-1.696;2023-08-01T08:11:32;18.10;99.90
22968;DHT22;11650;48.106;-1.696;2023-08-01T08:13:59;18.20;99.90
22968;DHT22;11650;48.106;-1.696;2023-08-01T08:16:25;18.40;99.90
22968;DHT22;11650;48.106;-1.696;2023-08-01T08:18:51;18.30;99.90
22968;DHT22;11650;48.106;-1.696;2023-08-01T08:21:17;18.30;99.90
22968;DHT22;11650;48.106;-1.696;2023-08-01T08:23:42;18.40;99.90
22968;DHT22;11650;48.106;-1.696;2023-08-01T08:26:08;18.60;99.90
22968;DHT22;11650;48.106;-1.696;2023-08-01T08:28:34;18.60;99.90
22968;DHT22;11650;48.106;-1.696;2023-08-01T08:31:00;18.60;99.90
22968;DHT22;11650;48.106;-1.696;2023-08-01T08:33:28;18.60;99.90
22968;DHT22;11650;48.106;-1.696;2023-08-01T08:35:54;19.00;99.90
22968;DHT22;11650;48.106;-1.696;2023-08-01T08:38:19;19.10;99.90
22968;DHT22;11650;48.106;-1.696;2023-08-01T08:41:11;19.10;99.90
22968;DHT22;11650;48.106;-1.696;2023-08-01T08:43:39;19.20;99.90
22968;DHT22;11650;48.106;-1.696;2023-08-01T08:46:08;19.10;99.90
22968;DHT22;11650;48.106;-1.696;2023-08-01T08:48:34;19.20;99.90
22968;DHT22;11650;48.106;-1.696;2023-08-01T08:51:01;19.10;99.90
22968;DHT22;11650;48.106;-1.696;2023-08-01T08:53:27;19.00;99.90
22968;DHT22;11650;48.106;-1.696;2023-08-01T08:55:53;19.10;99.90
22968;DHT22;11650;48.106;-1.696;2023-08-01T08:58:20;19.00;99.90
22968;DHT22;11650;48.106;-1.696;2023-08-01T09:00:46;18.90;99.90
22968;DHT22;11650;48.106;-1.696;2023-08-01T09:03:12;18.70;99.90
22968;DHT22;11650;48.106;-1.696;2023-08-01T09:05:54;18.70;99.90
22968;DHT22;11650;48.106;-1.696;2023-08-01T09:08:24;18.80;99.90
22968;DHT22;11650;48.106;-1.696;2023-08-01T09:10:52;18.70;99.90
22968;DHT22;11650;48.106;-1.696;2023-08-01T09:13:18;18.70;99.90
22968;DHT22;11650;48.106;-1.696;2023-08-01T09:15:44;18.80;99.90
22968;DHT22;11650;48.106;-1.696;2023-08-01T09:18:11;18.90;99.90
22968;DHT22;11650;48.106;-1.696;2023-08-01T09:20:47;18.80;99.90
22968;DHT22;11650;48.106;-1.696;2023-08-01T09:23:13;18.60;99.90
22968;DHT22;11650;48.106;-1.696;2023-08-01T09:25:40;18.50;99.90
22968;DHT22;11650;48.106;-1.696;2023-08-01T09:30:48;18.60;99.90
22968;DHT22;11650;48.106;-1.696;2023-08-01T09:33:14;18.70;99.90
22968;DHT22;11650;48.106;-1.696;2023-08-01T09:35:40;18.60;99.90
22968;DHT22;11650;48.106;-1.696;2023-08-01T09:38:05;18.50;99.90
22968;DHT22;11650;48.106;-1.696;2023-08-01T09:40:41;18.50;99.90
22968;DHT22;11650;48.106;-1.696;2023-08-01T09:43:06;18.50;99.90
22968;DHT22;11650;48.106;-1.696;2023-08-01T09:45:32;18.50;99.90
22968;DHT22;11650;48.106;-1.696;2023-08-01T09:47:59;18.70;99.90
22968;DHT22;11650;48.106;-1.696;2023-08-01T09:50:25;19.00;99.90
22968;DHT22;11650;48.106;-1.696;2023-08-01T09:52:51;19.40;99.90
22968;DHT22;11650;48.106;-1.696;2023-08-01T09:55:33;19.80;99.90
22968;DHT22;11650;48.106;-1.696;2023-08-01T09:57:59;20.00;99.90
22968;DHT22;11650;48.106;-1.696;2023-08-01T10:00:26;20.40;99.90
22968;DHT22;11650;48.106;-1.696;2023-08-01T10:02:53;20.50;99.90
22968;DHT22;11650;48.106;-1.696;2023-08-01T10:05:20;20.50;99.90
22968;DHT22;11650;48.106;-1.696;2023-08-01T10:07:47;20.60;99.90
22968;DHT22;11650;48.106;-1.696;2023-08-01T10:10:15;20.90;99.90
22968;DHT22;11650;48.106;-1.696;2023-08-01T10:12:45;20.80;99.90
22968;DHT22;11650;48.106;-1.696;2023-08-01T10:15:14;20.90;99.90
22968;DHT22;11650;48.106;-1.696;2023-08-01T10:17:41;20.70;99.90
22968;DHT22;11650;48.106;-1.696;2023-08-01T10:20:07;21.10;99.90
22968;DHT22;11650;48.106;-1.696;2023-08-01T10:22:33;21.00;99.90
22968;DHT22;11650;48.106;-1.696;2023-08-01T10:25:00;21.20;99.90
22968;DHT22;11650;48.106;-1.696;2023-08-01T10:27:25;21.40;99.90
22968;DHT22;11650;48.106;-1.696;2023-08-01T10:29:59;21.50;99.90
22968;DHT22;11650;48.106;-1.696;2023-08-01T10:32:34;21.70;99.90
22968;DHT22;11650;48.106;-1.696;2023-08-01T10:35:00;21.50;99.90
22968;DHT22;11650;48.106;-1.696;2023-08-01T10:37:26;21.60;99.90
22968;DHT22;11650;48.106;-1.696;2023-08-01T10:39:59;21.50;99.90
22968;DHT22;11650;48.106;-1.696;2023-08-01T10:42:25;21.30;99.90
22968;DHT22;11650;48.106;-1.696;2023-08-01T10:44:50;21.10;99.90
22968;DHT22;11650;48.106;-1.696;2023-08-01T10:47:25;20.80;99.90
22968;DHT22;11650;48.106;-1.696;2023-08-01T10:49:54;20.70;99.90
22968;DHT22;11650;48.106;-1.696;2023-08-01T10:52:24;20.70;99.90
22968;DHT22;11650;48.106;-1.696;2023-08-01T10:55:05;20.60;99.90
22968;DHT22;11650;48.106;-1.696;2023-08-01T10:57:33;20.40;99.90
22968;DHT22;11650;48.106;-1.696;2023-08-01T10:59:59;20.30;99.90
22968;DHT22;11650;48.106;-1.696;2023-08-01T11:02:27;20.10;99.90
22968;DHT22;11650;48.106;-1.696;2023-08-01T11:07:26;19.70;99.90
22968;DHT22;11650;48.106;-1.696;2023-08-01T11:10:09;19.70;99.90
22968;DHT22;11650;48.106;-1.696;2023-08-01T11:12:36;19.80;99.90
22968;DHT22;11650;48.106;-1.696;2023-08-01T11:15:05;20.00;99.90
22968;DHT22;11650;48.106;-1.696;2023-08-01T11:17:33;20.10;99.90
22968;DHT22;11650;48.106;-1.696;2023-08-01T11:20:04;20.20;99.90
22968;DHT22;11650;48.106;-1.696;2023-08-01T11:22:31;20.50;99.90
22968;DHT22;11650;48.106;-1.696;2023-08-01T11:24:57;20.50;99.90
22968;DHT22;11650;48.106;-1.696;2023-08-01T11:27:24;20.60;99.90
22968;DHT22;11650;48.106;-1.696;2023-08-01T11:29:51;20.60;99.90
22968;DHT22;11650;48.106;-1.696;2023-08-01T11:32:17;20.50;99.90
22968;DHT22;11650;48.106;-1.696;2023-08-01T11:34:43;20.50;99.90
22968;DHT22;11650;48.106;-1.696;2023-08-01T11:37:12;20.50;99.90
22968;DHT22;11650;48.106;-1.696;2023-08-01T11:39:39;20.50;99.90
22968;DHT22;11650;48.106;-1.696;2023-08-01T11:42:05;20.40;99.90
22968;DHT22;11650;48.106;-1.696;2023-08-01T11:44:31;20.50;99.90
22968;DHT22;11650;48.106;-1.696;2023-08-01T11:46:57;20.50;99.90
22968;DHT22;11650;48.106;-1.696;2023-08-01T11:49:23;20.60;99.90
22968;DHT22;11650;48.106;-1.696;2023-08-01T11:51:49;20.70;99.90
22968;DHT22;11650;48.106;-1.696;2023-08-01T11:54:15;20.80;99.90
22968;DHT22;11650;48.106;-1.696;2023-08-01T11:56:43;20.70;99.90
22968;DHT22;11650;48.106;-1.696;2023-08-01T11:59:13;20.60;99.90
22968;DHT22;11650;48.106;-1.696;2023-08-01T12:01:40;20.70;99.90
22968;DHT22;11650;48.106;-1.696;2023-08-01T12:04:07;20.70;99.90
22968;DHT22;11650;48.106;-1.696;2023-08-01T12:06:33;20.70;99.90
22968;DHT22;11650;48.106;-1.696;2023-08-01T12:09:12;20.90;99.90
22968;DHT22;11650;48.106;-1.696;2023-08-01T12:11:39;20.80;99.90
22968;DHT22;11650;48.106;-1.696;2023-08-01T12:14:09;20.70;99.90
22968;DHT22;11650;48.106;-1.696;2023-08-01T12:16:40;20.60;99.90
22968;DHT22;11650;48.106;-1.696;2023-08-01T12:19:08;20.60;99.90
22968;DHT22;11650;48.106;-1.696;2023-08-01T12:21:34;20.40;99.90
22968;DHT22;11650;48.106;-1.696;2023-08-01T12:24:01;20.10;99.90
22968;DHT22;11650;48.106;-1.696;2023-08-01T12:26:27;20.00;99.90
22968;DHT22;11650;48.106;-1.696;2023-08-01T12:28:52;20.00;99.90
22968;DHT22;11650;48.106;-1.696;2023-08-01T12:31:20;19.90;99.90
22968;DHT22;11650;48.106;-1.696;2023-08-01T12:33:46;19.80;99.90
22968;DHT22;11650;48.106;-1.696;2023-08-01T12:36:13;19.90;99.90
22968;DHT22;11650;48.106;-1.696;2023-08-01T12:38:38;19.80;99.90
22968;DHT22;11650;48.106;-1.696;2023-08-01T12:41:04;19.60;99.90
22968;DHT22;11650;48.106;-1.696;2023-08-01T12:43:30;19.50;99.90
22968;DHT22;11650;48.106;-1.696;2023-08-01T12:45:56;19.50;99.90
22968;DHT22;11650;48.106;-1.696;2023-08-01T12:48:24;19.50;99.90
22968;DHT22;11650;48.106;-1.696;2023-08-01T12:50:49;19.40;99.90
22968;DHT22;11650;48.106;-1.696;2023-08-01T12:53:15;19.40;99.90
22968;DHT22;11650;48.106;-1.696;2023-08-01T12:55:45;19.40;99.90
22968;DHT22;11650;48.106;-1.696;2023-08-01T12:58:11;19.40;99.90
22968;DHT22;11650;48.106;-1.696;2023-08-01T13:00:37;19.40;99.90
22968;DHT22;11650;48.106;-1.696;2023-08-01T13:03:03;19.40;99.90
22968;DHT22;11650;48.106;-1.696;2023-08-01T13:05:29;19.40;99.90
22968;DHT22;11650;48.106;-1.696;2023-08-01T13:07:54;19.30;99.90
22968;DHT22;11650;48.106;-1.696;2023-08-01T13:10:20;19.20;99.90
22968;DHT22;11650;48.106;-1.696;2023-08-01T13:12:45;19.20;99.90
22968;DHT22;11650;48.106;-1.696;2023-08-01T13:15:11;19.20;99.90
22968;DHT22;11650;48.106;-1.696;2023-08-01T13:17:38;19.20;99.90
22968;DHT22;11650;48.106;-1.696;2023-08-01T13:20:04;19.20;99.90
22968;DHT22;11650;48.106;-1.696;2023-08-01T13:22:29;19.30;99.90
22968;DHT22;11650;48.106;-1.696;2023-08-01T13:24:55;19.50;99.90
22968;DHT22;11650;48.106;-1.696;2023-08-01T13:27:21;19.40;99.90
22968;DHT22;11650;48.106;-1.696;2023-08-01T13:29:46;19.30;99.90
22968;DHT22;11650;48.106;-1.696;2023-08-01T13:32:12;19.30;99.90
22968;DHT22;11650;48.106;-1.696;2023-08-01T13:34:37;19.30;99.90
22968;DHT22;11650;48.106;-1.696;2023-08-01T13:37:03;19.40;99.90
22968;DHT22;11650;48.106;-1.696;2023-08-01T13:39:29;19.40;99.90
22968;DHT22;11650;48.106;-1.696;2023-08-01T13:41:54;19.40;99.90
22968;DHT22;11650;48.106;-1.696;2023-08-01T13:44:20;19.40;99.90
22968;DHT22;11650;48.106;-1.696;2023-08-01T13:46:45;19.30;99.90
22968;DHT22;11650;48.106;-1.696;2023-08-01T13:49:11;19.30;99.90
22968;DHT22;11650;48.106;-1.696;2023-08-01T13:51:38;19.30;99.90
22968;DHT22;11650;48.106;-1.696;2023-08-01T13:54:04;19.40;99.90
22968;DHT22;11650;48.106;-1.696;2023-08-01T13:56:29;19.50;99.90
22968;DHT22;11650;48.106;-1.696;2023-08-01T13:58:55;19.40;99.90
22968;DHT22;11650;48.106;-1.696;2023-08-01T14:01:21;19.50;99.90
22968;DHT22;11650;48.106;-1.696;2023-08-01T14:03:46;19.40;99.90
22968;DHT22;11650;48.106;-1.696;2023-08-01T14:06:14;19.30;99.90
22968;DHT22;11650;48.106;-1.696;2023-08-01T14:08:41;19.30;99.90
22968;DHT22;11650;48.106;-1.696;2023-08-01T14:11:08;19.30;99.90
22968;DHT22;11650;48.106;-1.696;2023-08-01T14:13:34;19.20;99.90
22968;DHT22;11650;48.106;-1.696;2023-08-01T14:16:01;19.30;99.90
22968;DHT22;11650;48.106;-1.696;2023-08-01T14:18:28;19.10;99.90
22968;DHT22;11650;48.106;-1.696;2023-08-01T14:20:53;19.00;99.90
22968;DHT22;11650;48.106;-1.696;2023-08-01T14:23:19;19.00;99.90
22968;DHT22;11650;48.106;-1.696;2023-08-01T14:25:45;19.10;99.90
22968;DHT22;11650;48.106;-1.696;2023-08-01T14:28:11;19.00;99.90
22968;DHT22;11650;48.106;-1.696;2023-08-01T14:30:37;18.90;99.90
22968;DHT22;11650;48.106;-1.696;2023-08-01T14:33:05;18.80;99.90
22968;DHT22;11650;48.106;-1.696;2023-08-01T14:35:32;18.70;99.90
22968;DHT22;11650;48.106;-1.696;2023-08-01T14:37:58;18.60;99.90
22968;DHT22;11650;48.106;-1.696;2023-08-01T14:40:24;18.50;99.90
22968;DHT22;11650;48.106;-1.696;2023-08-01T14:42:50;18.60;99.90
22968;DHT22;11650;48.106;-1.696;2023-08-01T14:45:16;18.60;99.90
22968;DHT22;11650;48.106;-1.696;2023-08-01T14:47:42;18.70;99.90
22968;DHT22;11650;48.106;-1.696;2023-08-01T14:50:10;18.70;99.90
22968;DHT22;11650;48.106;-1.696;2023-08-01T14:52:36;18.70;99.90
22968;DHT22;11650;48.106;-1.696;2023-08-01T14:55:02;18.70;99.90
22968;DHT22;11650;48.106;-1.696;2023-08-01T14:57:27;18.70;99.90
22968;DHT22;11650;48.106;-1.696;2023-08-01T14:59:54;18.60;99.90
22968;DHT22;11650;48.106;-1.696;2023-08-01T15:02:20;18.60;99.90
22968;DHT22;11650;48.106;-1.696;2023-08-01T15:04:46;18.70;99.90
22968;DHT22;11650;48.106;-1.696;2023-08-01T15:07:12;18.90;99.90
22968;DHT22;11650;48.106;-1.696;2023-08-01T15:09:42;18.90;99.90
22968;DHT22;11650;48.106;-1.696;2023-08-01T15:12:07;18.90;99.90
22968;DHT22;11650;48.106;-1.696;2023-08-01T15:14:33;18.90;99.90